createdAt,value
2023-02-01T00:00:37.119Z,979.07
2023-02-01T00:01:37.188Z,979.05
2023-02-01T00:02:37.270Z,979.06
2023-02-01T00:03:37.271Z,979.10
2023-02-01T00:04:37.288Z,979.10
2023-02-01T00:05:37.348Z,979.07
2023-02-01T00:06:38.027Z,979.12
2023-02-01T00:07:37.420Z,979.19
2023-02-01T00:08:37.469Z,979.19
2023-02-01T00:09:37.526Z,979.17
2023-02-01T00:10:37.536Z,979.22
2023-02-01T00:11:37.580Z,979.22
2023-02-01T00:12:37.651Z,979.18
2023-02-01T00:13:37.667Z,979.22
2023-02-01T00:14:37.713Z,979.19
2023-02-01T00:15:37.775Z,979.19
2023-02-01T00:16:37.804Z,979.24
2023-02-01T00:17:37.881Z,979.20
2023-02-01T00:18:38.519Z,979.19
2023-02-01T00:19:37.915Z,979.23
2023-02-01T00:20:37.958Z,979.17
2023-02-01T00:21:38.016Z,979.18
2023-02-01T00:22:38.065Z,979.16
2023-02-01T00:23:38.091Z,979.18
2023-02-01T00:24:38.165Z,979.15
2023-02-01T00:25:38.165Z,979.19
2023-02-01T00:26:38.320Z,979.14
2023-02-01T00:27:38.291Z,979.18
2023-02-01T00:28:38.296Z,979.15
2023-02-01T00:29:38.345Z,979.15
2023-02-01T00:30:38.404Z,979.13
2023-02-01T00:31:38.476Z,979.12
2023-02-01T00:32:38.497Z,979.11
2023-02-01T00:33:38.506Z,979.11
2023-02-01T00:34:38.564Z,979.06
2023-02-01T00:35:38.626Z,979.06
2023-02-01T00:36:38.634Z,979.05
2023-02-01T00:37:38.680Z,979.08
2023-02-01T00:38:38.724Z,979.06
2023-02-01T00:39:38.790Z,979.04
2023-02-01T00:40:38.830Z,979.04
2023-02-01T00:41:38.862Z,979.04
2023-02-01T00:42:38.886Z,979.03
2023-02-01T00:43:38.940Z,979.03
2023-02-01T00:44:38.976Z,979.01
2023-02-01T00:45:39.040Z,979.07
2023-02-01T00:46:39.091Z,979.03
2023-02-01T00:47:39.161Z,979.03
2023-02-01T00:48:39.154Z,978.99
2023-02-01T00:49:39.195Z,978.98
2023-02-01T00:50:39.235Z,978.99
2023-02-01T00:51:39.271Z,978.96
2023-02-01T00:52:39.344Z,978.94
2023-02-01T00:53:39.387Z,978.90
2023-02-01T00:54:39.426Z,978.87
2023-02-01T00:55:39.439Z,978.87
2023-02-01T00:56:39.493Z,978.87
2023-02-01T00:57:39.541Z,978.84
2023-02-01T00:58:39.605Z,978.88
2023-02-01T00:59:39.630Z,978.86
2023-02-01T01:00:39.667Z,978.85
2023-02-01T01:01:39.743Z,978.90
2023-02-01T01:02:39.735Z,978.92
2023-02-01T01:03:39.791Z,978.93
2023-02-01T01:04:39.849Z,978.92
2023-02-01T01:05:39.867Z,978.93
2023-02-01T01:06:39.926Z,978.91
2023-02-01T01:07:39.964Z,978.91
2023-02-01T01:08:40.011Z,978.88
2023-02-01T01:09:40.054Z,978.88
2023-02-01T01:10:40.081Z,978.93
2023-02-01T01:11:40.120Z,978.86
2023-02-01T01:12:40.173Z,978.84
2023-02-01T01:13:40.233Z,978.90
2023-02-01T01:14:40.255Z,978.91
2023-02-01T01:15:40.300Z,978.92
2023-02-01T01:16:40.362Z,978.91
2023-02-01T01:17:40.383Z,978.96
2023-02-01T01:18:40.415Z,978.98
2023-02-01T01:19:40.465Z,978.97
2023-02-01T01:20:40.500Z,978.97
2023-02-01T01:21:40.567Z,978.95
2023-02-01T01:22:40.585Z,978.95
2023-02-01T01:23:40.662Z,978.94
2023-02-01T01:24:40.678Z,978.91
2023-02-01T01:25:40.740Z,978.91
2023-02-01T01:26:40.912Z,978.88
2023-02-01T01:27:40.807Z,978.90
2023-02-01T01:28:40.882Z,978.88
2023-02-01T01:29:40.886Z,978.87
2023-02-01T01:30:41.553Z,978.90
2023-02-01T01:31:41.024Z,978.92
2023-02-01T01:32:41.011Z,978.88
2023-02-01T01:33:41.084Z,978.93
2023-02-01T01:34:41.103Z,978.90
2023-02-01T01:35:41.147Z,978.89
2023-02-01T01:36:41.179Z,978.86
2023-02-01T01:37:41.231Z,978.92
2023-02-01T01:38:41.303Z,978.82
2023-02-01T01:39:41.309Z,978.83
2023-02-01T01:40:41.354Z,978.85
2023-02-01T01:41:41.407Z,978.85
2023-02-01T01:42:41.442Z,978.82
2023-02-01T01:43:41.500Z,978.80
2023-02-01T01:44:42.029Z,978.76
2023-02-01T01:45:41.569Z,978.78
2023-02-01T01:46:41.926Z,978.80
2023-02-01T01:47:41.646Z,978.84
2023-02-01T01:48:41.700Z,978.79
2023-02-01T01:49:41.743Z,978.81
2023-02-01T01:50:41.782Z,978.81
2023-02-01T01:51:41.921Z,978.79
2023-02-01T01:52:41.864Z,978.81
2023-02-01T01:53:41.914Z,978.77
2023-02-01T01:54:41.959Z,978.75
2023-02-01T01:55:41.996Z,978.71
2023-02-01T01:56:42.054Z,978.65
2023-02-01T01:57:42.084Z,978.71
2023-02-01T01:58:42.133Z,978.69
2023-02-01T01:59:42.164Z,978.66
2023-02-01T02:00:42.272Z,978.65
2023-02-01T02:01:42.361Z,978.66
2023-02-01T02:02:42.297Z,978.66
2023-02-01T02:03:42.338Z,978.63
2023-02-01T02:04:42.395Z,978.65
2023-02-01T02:05:42.413Z,978.62
2023-02-01T02:06:42.465Z,978.64
2023-02-01T02:07:42.513Z,978.66
2023-02-01T02:08:42.542Z,978.63
2023-02-01T02:09:48.153Z,978.57
2023-02-01T02:10:42.633Z,978.61
2023-02-01T02:11:42.679Z,978.56
2023-02-01T02:12:42.734Z,978.54
2023-02-01T02:13:42.758Z,978.54
2023-02-01T02:14:42.820Z,978.54
2023-02-01T02:15:42.839Z,978.51
2023-02-01T02:16:43.046Z,978.46
2023-02-01T02:17:42.923Z,978.44
2023-02-01T02:18:43.556Z,978.44
2023-02-01T02:19:43.015Z,978.43
2023-02-01T02:20:43.049Z,978.44
2023-02-01T02:21:43.129Z,978.40
2023-02-01T02:22:43.133Z,978.38
2023-02-01T02:23:43.187Z,978.38
2023-02-01T02:24:43.230Z,978.39
2023-02-01T02:25:43.271Z,978.44
2023-02-01T02:26:43.382Z,978.45
2023-02-01T02:27:43.393Z,978.47
2023-02-01T02:28:43.396Z,978.50
2023-02-01T02:29:43.429Z,978.49
2023-02-01T02:30:43.487Z,978.50
2023-02-01T02:31:43.556Z,978.48
2023-02-01T02:32:43.595Z,978.50
2023-02-01T02:33:43.597Z,978.48
2023-02-01T02:34:43.639Z,978.51
2023-02-01T02:35:43.701Z,978.48
2023-02-01T02:36:43.729Z,978.46
2023-02-01T02:37:43.788Z,978.47
2023-02-01T02:38:43.846Z,978.47
2023-02-01T02:39:43.861Z,978.48
2023-02-01T02:40:43.897Z,978.51
2023-02-01T02:41:43.936Z,978.48
2023-02-01T02:42:43.988Z,978.50
2023-02-01T02:43:44.044Z,978.52
2023-02-01T02:44:44.071Z,978.55
2023-02-01T02:45:44.128Z,978.54
2023-02-01T02:46:44.180Z,978.55
2023-02-01T02:47:44.224Z,978.61
2023-02-01T02:48:44.233Z,978.64
2023-02-01T02:49:44.279Z,978.63
2023-02-01T02:50:44.367Z,978.63
2023-02-01T02:51:44.363Z,978.62
2023-02-01T02:52:44.409Z,978.61
2023-02-01T02:53:44.450Z,978.60
2023-02-01T02:54:44.483Z,978.61
2023-02-01T02:55:44.550Z,978.60
2023-02-01T02:56:44.571Z,978.58
2023-02-01T02:57:44.608Z,978.56
2023-02-01T02:58:44.689Z,978.54
2023-02-01T02:59:44.698Z,978.52
2023-02-01T03:00:44.805Z,978.48
2023-02-01T03:01:44.795Z,978.48
2023-02-01T03:02:44.844Z,978.44
2023-02-01T03:03:44.894Z,978.39
2023-02-01T03:04:44.913Z,978.44
2023-02-01T03:05:44.973Z,978.43
2023-02-01T03:06:44.999Z,978.42
2023-02-01T03:07:45.045Z,978.39
2023-02-01T03:08:45.085Z,978.41
2023-02-01T03:09:45.129Z,978.35
2023-02-01T03:10:45.200Z,978.36
2023-02-01T03:11:45.210Z,978.38
2023-02-01T03:12:45.248Z,978.30
2023-02-01T03:13:45.287Z,978.33
2023-02-01T03:14:45.332Z,978.33
2023-02-01T03:15:45.407Z,978.33
2023-02-01T03:16:45.451Z,978.29
2023-02-01T03:17:46.044Z,978.33
2023-02-01T03:18:45.497Z,978.33
2023-02-01T03:19:45.539Z,978.37
2023-02-01T03:20:45.618Z,978.31
2023-02-01T03:21:45.631Z,978.31
2023-02-01T03:22:45.671Z,978.37
2023-02-01T03:23:45.718Z,978.34
2023-02-01T03:24:45.747Z,978.36
2023-02-01T03:25:45.820Z,978.38
2023-02-01T03:26:45.925Z,978.37
2023-02-01T03:27:45.897Z,978.38
2023-02-01T03:28:45.941Z,978.38
2023-02-01T03:29:45.957Z,978.37
2023-02-01T03:30:46.569Z,978.45
2023-02-01T03:31:46.067Z,978.42
2023-02-01T03:32:46.093Z,978.43
2023-02-01T03:33:46.156Z,978.42
2023-02-01T03:34:46.179Z,978.44
2023-02-01T03:35:46.220Z,978.41
2023-02-01T03:36:46.266Z,978.37
2023-02-01T03:37:46.293Z,978.35
2023-02-01T03:38:46.410Z,978.32
2023-02-01T03:39:46.396Z,978.35
2023-02-01T03:40:46.429Z,978.34
2023-02-01T03:41:46.472Z,978.37
2023-02-01T03:42:46.507Z,978.33
2023-02-01T03:43:46.572Z,978.34
2023-02-01T03:44:46.590Z,978.28
2023-02-01T03:45:46.666Z,978.31
2023-02-01T03:46:46.673Z,978.28
2023-02-01T03:47:46.717Z,978.33
2023-02-01T03:48:46.795Z,978.27
2023-02-01T03:49:46.807Z,978.27
2023-02-01T03:50:46.850Z,978.25
2023-02-01T03:51:46.922Z,978.25
2023-02-01T03:52:46.950Z,978.25
2023-02-01T03:53:46.968Z,978.25
2023-02-01T03:54:47.023Z,978.28
2023-02-01T03:55:47.067Z,978.24
2023-02-01T03:56:47.121Z,978.26
2023-02-01T03:57:47.221Z,978.29
2023-02-01T03:58:48.042Z,978.25
2023-02-01T03:59:47.228Z,978.20
2023-02-01T04:00:47.283Z,978.21
2023-02-01T04:01:47.306Z,978.23
2023-02-01T04:02:47.475Z,978.16
2023-02-01T04:03:47.415Z,978.24
2023-02-01T04:04:47.435Z,978.25
2023-02-01T04:05:47.480Z,978.20
2023-02-01T04:06:47.523Z,978.20
2023-02-01T04:07:47.588Z,978.22
2023-02-01T04:08:47.611Z,978.22
2023-02-01T04:09:47.675Z,978.26
2023-02-01T04:10:47.688Z,978.21
2023-02-01T04:11:47.768Z,978.25
2023-02-01T04:12:47.785Z,978.32
2023-02-01T04:13:47.815Z,978.29
2023-02-01T04:14:47.878Z,978.26
2023-02-01T04:15:47.899Z,978.35
2023-02-01T04:16:48.009Z,978.34
2023-02-01T04:17:47.982Z,978.36
2023-02-01T04:18:48.031Z,978.45
2023-02-01T04:19:48.067Z,978.44
2023-02-01T04:20:48.141Z,978.41
2023-02-01T04:21:48.159Z,978.47
2023-02-01T04:22:48.228Z,978.48
2023-02-01T04:23:48.244Z,978.50
2023-02-01T04:24:48.278Z,978.50
2023-02-01T04:25:48.326Z,978.49
2023-02-01T04:26:48.451Z,978.50
2023-02-01T04:27:48.431Z,978.50
2023-02-01T04:28:48.446Z,978.45
2023-02-01T04:29:48.494Z,978.45
2023-02-01T04:30:48.595Z,978.42
2023-02-01T04:31:48.624Z,978.44
2023-02-01T04:32:48.632Z,978.48
2023-02-01T04:33:48.654Z,978.48
2023-02-01T04:34:48.705Z,978.51
2023-02-01T04:35:48.773Z,978.49
2023-02-01T04:36:48.792Z,978.52
2023-02-01T04:37:48.833Z,978.60
2023-02-01T04:38:48.872Z,978.57
2023-02-01T04:39:48.973Z,978.59
2023-02-01T04:40:48.952Z,978.59
2023-02-01T04:41:48.993Z,978.64
2023-02-01T04:42:49.040Z,978.66
2023-02-01T04:43:49.079Z,978.63
2023-02-01T04:44:49.152Z,978.62
2023-02-01T04:45:49.192Z,978.69
2023-02-01T04:46:49.213Z,978.71
2023-02-01T04:47:49.251Z,978.70
2023-02-01T04:48:49.289Z,978.77
2023-02-01T04:49:49.355Z,978.75
2023-02-01T04:50:49.409Z,978.75
2023-02-01T04:51:49.443Z,978.78
2023-02-01T04:52:49.466Z,978.85
2023-02-01T04:53:49.518Z,978.84
2023-02-01T04:54:49.563Z,978.89
2023-02-01T04:55:49.618Z,978.95
2023-02-01T04:56:49.625Z,978.98
2023-02-01T04:57:49.665Z,978.95
2023-02-01T04:58:49.707Z,978.96
2023-02-01T04:59:49.779Z,978.98
2023-02-01T05:00:49.793Z,979.02
2023-02-01T05:01:49.848Z,979.02
2023-02-01T05:02:49.878Z,979.08
2023-02-01T05:03:49.925Z,979.08
2023-02-01T05:04:50.054Z,979.10
2023-02-01T05:05:50.034Z,979.09
2023-02-01T05:06:50.081Z,979.12
2023-02-01T05:07:50.096Z,979.11
2023-02-01T05:08:50.138Z,979.14
2023-02-01T05:09:50.180Z,979.12
2023-02-01T05:10:50.223Z,979.11
2023-02-01T05:11:50.287Z,979.06
2023-02-01T05:12:50.301Z,979.04
2023-02-01T05:13:50.346Z,979.06
2023-02-01T05:14:50.381Z,979.03
2023-02-01T05:15:50.458Z,979.01
2023-02-01T05:16:50.497Z,978.97
2023-02-01T05:17:50.516Z,978.99
2023-02-01T05:18:50.557Z,978.96
2023-02-01T05:19:50.592Z,978.86
2023-02-01T05:20:50.633Z,978.93
2023-02-01T05:21:50.707Z,978.89
2023-02-01T05:22:50.728Z,978.88
2023-02-01T05:23:50.767Z,978.87
2023-02-01T05:24:50.811Z,978.80
2023-02-01T05:25:50.868Z,978.74
2023-02-01T05:26:50.971Z,978.73
2023-02-01T05:27:50.938Z,978.67
2023-02-01T05:28:50.976Z,978.68
2023-02-01T05:29:51.042Z,978.72
2023-02-01T05:30:51.163Z,978.74
2023-02-01T05:31:51.255Z,978.74
2023-02-01T05:32:51.141Z,978.75
2023-02-01T05:33:51.192Z,978.72
2023-02-01T05:34:51.266Z,978.65
2023-02-01T05:35:52.061Z,978.63
2023-02-01T05:36:51.318Z,978.54
2023-02-01T05:37:51.351Z,978.54
2023-02-01T05:38:51.403Z,978.44
2023-02-01T05:39:51.461Z,978.47
2023-02-01T05:40:51.487Z,978.46
2023-02-01T05:41:51.539Z,978.49
2023-02-01T05:42:51.570Z,978.55
2023-02-01T05:43:51.605Z,978.57
2023-02-01T05:44:51.679Z,978.60
2023-02-01T05:45:51.720Z,978.61
2023-02-01T05:46:51.735Z,978.61
2023-02-01T05:47:51.777Z,978.64
2023-02-01T05:48:51.823Z,978.68
2023-02-01T05:49:51.861Z,978.70
2023-02-01T05:50:51.923Z,978.71
2023-02-01T05:51:51.939Z,978.74
2023-02-01T05:52:51.990Z,978.77
2023-02-01T05:53:52.033Z,978.80
2023-02-01T05:54:52.073Z,978.81
2023-02-01T05:55:52.139Z,978.80
2023-02-01T05:56:52.159Z,978.85
2023-02-01T05:57:52.190Z,978.90
2023-02-01T05:58:52.258Z,978.92
2023-02-01T05:59:52.319Z,978.96
2023-02-01T06:00:52.357Z,978.97
2023-02-01T06:01:52.391Z,978.97
2023-02-01T06:02:52.495Z,978.93
2023-02-01T06:03:52.500Z,978.94
2023-02-01T06:04:52.485Z,978.88
2023-02-01T06:05:52.551Z,978.94
2023-02-01T06:06:52.569Z,978.92
2023-02-01T06:07:52.617Z,978.88
2023-02-01T06:08:52.678Z,978.79
2023-02-01T06:09:52.708Z,978.79
2023-02-01T06:10:52.750Z,978.74
2023-02-01T06:11:52.813Z,978.74
2023-02-01T06:12:52.820Z,978.83
2023-02-01T06:13:52.862Z,978.76
2023-02-01T06:14:52.940Z,978.83
2023-02-01T06:15:52.984Z,978.81
2023-02-01T06:16:52.992Z,978.80
2023-02-01T06:17:53.048Z,978.82
2023-02-01T06:18:53.090Z,978.82
2023-02-01T06:19:53.134Z,978.82
2023-02-01T06:20:53.174Z,978.82
2023-02-01T06:21:53.207Z,978.76
2023-02-01T06:22:53.268Z,978.79
2023-02-01T06:23:53.328Z,978.87
2023-02-01T06:24:53.330Z,978.82
2023-02-01T06:25:53.377Z,978.89
2023-02-01T06:26:53.477Z,978.89
2023-02-01T06:27:53.469Z,978.95
2023-02-01T06:28:53.501Z,978.93
2023-02-01T06:29:53.552Z,978.98
2023-02-01T06:30:53.599Z,979.01
2023-02-01T06:31:53.663Z,979.00
2023-02-01T06:32:53.671Z,979.02
2023-02-01T06:33:53.706Z,979.00
2023-02-01T06:34:53.753Z,979.00
2023-02-01T06:35:53.789Z,979.00
2023-02-01T06:36:53.865Z,979.04
2023-02-01T06:37:53.872Z,979.11
2023-02-01T06:38:53.920Z,979.09
2023-02-01T06:39:53.963Z,979.06
2023-02-01T06:40:53.999Z,979.08
2023-02-01T06:41:54.075Z,979.11
2023-02-01T06:42:54.089Z,979.16
2023-02-01T06:43:54.142Z,979.20
2023-02-01T06:44:54.176Z,979.10
2023-02-01T06:45:54.215Z,979.15
2023-02-01T06:46:54.327Z,979.17
2023-02-01T06:47:54.312Z,979.18
2023-02-01T06:48:54.345Z,979.20
2023-02-01T06:49:54.390Z,979.21
2023-02-01T06:50:54.427Z,979.20
2023-02-01T06:51:54.494Z,979.32
2023-02-01T06:52:55.063Z,979.36
2023-02-01T06:53:54.577Z,979.44
2023-02-01T06:54:54.610Z,979.42
2023-02-01T06:55:54.629Z,979.35
2023-02-01T06:56:54.674Z,979.42
2023-02-01T06:57:54.720Z,979.39
2023-02-01T06:58:54.802Z,979.51
2023-02-01T06:59:55.558Z,979.46
2023-02-01T07:00:54.933Z,979.54
2023-02-01T07:01:54.965Z,979.51
2023-02-01T07:02:54.926Z,979.54
2023-02-01T07:03:54.998Z,979.55
2023-02-01T07:04:55.012Z,979.64
2023-02-01T07:05:55.051Z,979.61
2023-02-01T07:06:55.097Z,979.61
2023-02-01T07:07:55.256Z,979.68
2023-02-01T07:08:55.206Z,979.65
2023-02-01T07:09:55.233Z,979.59
2023-02-01T07:10:55.282Z,979.54
2023-02-01T07:11:55.300Z,979.54
2023-02-01T07:12:55.354Z,979.53
2023-02-01T07:13:55.420Z,979.51
2023-02-01T07:14:55.454Z,979.59
2023-02-01T07:15:55.519Z,979.60
2023-02-01T07:16:55.519Z,979.61
2023-02-01T07:17:55.596Z,979.62
2023-02-01T07:18:55.637Z,979.63
2023-02-01T07:19:55.654Z,979.61
2023-02-01T07:20:55.694Z,979.61
2023-02-01T07:21:55.727Z,979.63
2023-02-01T07:22:55.770Z,979.66
2023-02-01T07:23:55.831Z,979.74
2023-02-01T07:24:55.857Z,979.68
2023-02-01T07:25:55.910Z,979.65
2023-02-01T07:26:55.991Z,979.61
2023-02-01T07:27:56.015Z,979.61
2023-02-01T07:28:56.035Z,979.61
2023-02-01T07:29:56.073Z,979.59
2023-02-01T07:30:56.158Z,979.58
2023-02-01T07:31:56.148Z,979.60
2023-02-01T07:32:56.384Z,979.58
2023-02-01T07:33:56.245Z,979.61
2023-02-01T07:34:56.275Z,979.61
2023-02-01T07:35:56.333Z,979.65
2023-02-01T07:36:56.361Z,979.68
2023-02-01T07:37:56.441Z,979.63
2023-02-01T07:38:56.966Z,979.61
2023-02-01T07:39:56.527Z,979.61
2023-02-01T07:40:56.539Z,979.65
2023-02-01T07:41:56.594Z,979.61
2023-02-01T07:42:56.623Z,979.60
2023-02-01T07:43:56.676Z,979.55
2023-02-01T07:54:34.640Z,979.49
2023-02-01T07:55:36.539Z,979.51
2023-02-01T07:56:34.672Z,979.56
2023-02-01T07:57:34.700Z,979.55
2023-02-01T07:58:34.756Z,979.58
2023-02-01T07:59:34.821Z,979.51
2023-02-01T08:00:34.827Z,979.57
2023-02-01T08:01:34.884Z,979.52
2023-02-01T08:02:35.556Z,979.56
2023-02-01T08:03:34.969Z,979.59
2023-02-01T08:04:35.035Z,979.51
2023-02-01T08:05:35.052Z,979.53
2023-02-01T08:06:35.091Z,979.56
2023-02-01T08:07:35.124Z,979.62
2023-02-01T08:08:35.192Z,979.59
2023-02-01T08:09:35.210Z,979.53
2023-02-01T08:10:35.273Z,979.47
2023-02-01T08:11:35.329Z,979.46
2023-02-01T08:12:35.358Z,979.50
2023-02-01T08:13:35.405Z,979.51
2023-02-01T08:14:35.421Z,979.47
2023-02-01T08:15:35.468Z,979.46
2023-02-01T08:16:35.582Z,979.48
2023-02-01T08:17:36.519Z,979.43
2023-02-01T08:18:35.601Z,979.40
2023-02-01T08:19:35.687Z,979.36
2023-02-01T08:20:35.679Z,979.37
2023-02-01T08:21:35.735Z,979.38
2023-02-01T08:22:35.764Z,979.43
2023-02-01T08:23:35.803Z,979.36
2023-02-01T08:24:35.868Z,979.36
2023-02-01T08:25:35.900Z,979.37
2023-02-01T08:26:35.975Z,979.34
2023-02-01T08:27:35.977Z,979.35
2023-02-01T08:28:37.829Z,979.42
2023-02-01T08:29:36.099Z,979.38
2023-02-01T08:30:36.134Z,979.41
2023-02-01T08:31:36.179Z,979.50
2023-02-01T08:32:36.185Z,979.55
2023-02-01T08:33:36.236Z,979.48
2023-02-01T08:34:36.293Z,979.47
2023-02-01T08:35:43.165Z,979.52
2023-02-01T08:36:36.356Z,979.48
2023-02-01T08:37:36.398Z,979.47
2023-02-01T08:38:36.448Z,979.48
2023-02-01T08:39:36.518Z,979.49
2023-02-01T08:40:36.558Z,979.51
2023-02-01T08:41:36.573Z,979.47
2023-02-01T08:42:36.624Z,979.54
2023-02-01T08:43:37.517Z,979.57
2023-02-01T08:44:36.720Z,979.57
2023-02-01T08:45:36.763Z,979.57
2023-02-01T08:46:36.792Z,979.54
2023-02-01T08:47:36.863Z,979.56
2023-02-01T08:48:36.930Z,979.58
2023-02-01T08:49:36.958Z,979.56
2023-02-01T08:50:37.024Z,979.57
2023-02-01T08:51:37.039Z,979.59
2023-02-01T08:52:38.275Z,979.58
2023-02-01T08:53:37.160Z,979.58
2023-02-01T08:54:37.165Z,979.57
2023-02-01T08:55:37.219Z,979.57
2023-02-01T08:56:37.326Z,979.58
2023-02-01T08:57:37.292Z,979.65
2023-02-01T08:58:37.318Z,979.54
2023-02-01T08:59:37.365Z,979.57
2023-02-01T09:00:37.420Z,979.54
2023-02-01T09:01:37.524Z,979.55
2023-02-01T09:02:37.475Z,979.53
2023-02-01T09:03:37.518Z,979.52
2023-02-01T09:04:37.558Z,979.58
2023-02-01T09:05:48.724Z,979.52
2023-02-01T09:06:37.664Z,979.69
2023-02-01T09:07:37.677Z,979.60
2023-02-01T09:08:37.720Z,979.58
2023-02-01T09:09:37.772Z,979.67
2023-02-01T09:10:38.147Z,979.67
2023-02-01T09:11:37.859Z,979.62
2023-02-01T09:12:37.884Z,979.62
2023-02-01T09:13:37.924Z,979.64
2023-02-01T09:14:38.029Z,979.66
2023-02-01T09:15:38.065Z,979.67
2023-02-01T09:16:38.080Z,979.72
2023-02-01T09:17:38.113Z,979.78
2023-02-01T09:18:45.949Z,979.84
2023-02-01T09:19:38.183Z,979.78
2023-02-01T09:20:38.223Z,979.71
2023-02-01T09:21:38.305Z,979.90
2023-02-01T09:22:38.308Z,979.87
2023-02-01T09:23:38.369Z,979.93
2023-02-01T09:24:38.481Z,979.94
2023-02-01T09:25:39.076Z,979.97
2023-02-01T09:26:38.648Z,980.07
2023-02-01T09:27:38.521Z,980.02
2023-02-01T09:28:38.629Z,980.08
2023-02-01T09:29:38.739Z,980.04
2023-02-01T09:30:38.800Z,980.03
2023-02-01T09:31:40.081Z,980.03
2023-02-01T09:32:38.811Z,980.02
2023-02-01T09:33:38.862Z,979.96
2023-02-01T09:34:38.948Z,979.94
2023-02-01T09:35:38.920Z,979.94
2023-02-01T09:36:39.027Z,979.89
2023-02-01T09:37:39.033Z,979.88
2023-02-01T09:38:44.472Z,979.94
2023-02-01T09:39:39.078Z,979.94
2023-02-01T09:40:39.166Z,979.91
2023-02-01T09:41:39.159Z,979.91
2023-02-01T09:42:39.259Z,979.87
2023-02-01T09:43:39.232Z,979.91
2023-02-01T09:44:44.155Z,979.93
2023-02-01T09:45:39.340Z,979.90
2023-02-01T09:46:39.429Z,979.90
2023-02-01T09:47:39.423Z,979.92
2023-02-01T09:48:40.068Z,980.00
2023-02-01T09:49:39.567Z,979.89
2023-02-01T09:50:39.573Z,979.93
2023-02-01T09:51:39.607Z,979.90
2023-02-01T09:52:39.623Z,979.90
2023-02-01T09:53:39.671Z,979.90
2023-02-01T09:54:39.745Z,979.90
2023-02-01T09:55:40.557Z,979.94
2023-02-01T09:56:39.776Z,979.94
2023-02-01T09:57:39.869Z,979.94
2023-02-01T09:58:39.870Z,979.92
2023-02-01T09:59:39.937Z,980.02
2023-02-01T10:00:39.951Z,979.97
2023-02-01T10:01:40.102Z,980.00
2023-02-01T10:02:40.134Z,980.01
2023-02-01T10:03:40.102Z,980.08
2023-02-01T10:04:40.094Z,980.10
2023-02-01T10:05:40.279Z,980.14
2023-02-01T10:06:40.205Z,980.13
2023-02-01T10:07:40.354Z,980.10
2023-02-01T10:08:40.414Z,980.09
2023-02-01T10:09:40.360Z,980.09
2023-02-01T10:10:40.376Z,980.03
2023-02-01T10:11:40.502Z,979.96
2023-02-01T10:12:40.491Z,979.94
2023-02-01T10:13:40.549Z,979.94
2023-02-01T10:14:40.582Z,979.90
2023-02-01T10:15:40.640Z,979.87
2023-02-01T10:16:40.891Z,979.83
2023-02-01T10:17:40.721Z,979.72
2023-02-01T10:18:40.755Z,979.77
2023-02-01T10:19:40.874Z,979.91
2023-02-01T10:20:40.852Z,979.81
2023-02-01T10:21:40.871Z,979.86
2023-02-01T10:23:04.958Z,979.69
2023-02-01T10:23:40.953Z,979.79
2023-02-01T10:24:41.012Z,979.74
2023-02-01T10:25:41.158Z,979.70
2023-02-01T10:26:41.185Z,979.64
2023-02-01T10:27:41.111Z,979.66
2023-02-01T10:28:41.233Z,979.63
2023-02-01T10:29:41.235Z,979.64
2023-02-01T10:30:41.298Z,979.62
2023-02-01T10:31:41.449Z,979.59
2023-02-01T10:32:41.390Z,979.61
2023-02-01T10:33:41.389Z,979.61
2023-02-01T10:34:41.431Z,979.53
2023-02-01T10:35:41.528Z,979.53
2023-02-01T10:36:41.516Z,979.56
2023-02-01T10:37:41.608Z,979.55
2023-02-01T10:38:41.589Z,979.51
2023-02-01T10:39:41.660Z,979.46
2023-02-01T10:40:41.675Z,979.49
2023-02-01T10:41:41.850Z,979.53
2023-02-01T10:42:41.783Z,979.50
2023-02-01T10:43:41.895Z,979.48
2023-02-01T10:44:41.875Z,979.55
2023-02-01T10:45:41.906Z,979.55
2023-02-01T10:46:41.999Z,979.50
2023-02-01T10:47:42.002Z,979.52
2023-02-01T10:48:42.139Z,979.60
2023-02-01T10:49:42.090Z,979.61
2023-02-01T10:50:42.143Z,979.59
2023-02-01T10:51:42.201Z,979.61
2023-02-01T10:52:42.236Z,979.60
2023-02-01T10:53:42.290Z,979.58
2023-02-01T10:54:42.260Z,979.66
2023-02-01T10:55:42.331Z,979.60
2023-02-01T10:56:42.353Z,979.64
2023-02-01T10:57:42.394Z,979.65
2023-02-01T10:58:42.478Z,979.64
2023-02-01T10:59:44.245Z,979.68
2023-02-01T11:00:42.557Z,979.71
2023-02-01T11:01:42.620Z,979.69
2023-02-01T11:02:42.674Z,979.69
2023-02-01T11:03:42.669Z,979.68
2023-02-01T11:04:42.743Z,979.68
2023-02-01T11:05:44.731Z,979.68
2023-02-01T11:06:42.807Z,979.69
2023-02-01T11:07:42.909Z,979.65
2023-02-01T11:08:42.886Z,979.72
2023-02-01T11:09:43.032Z,979.68
2023-02-01T11:10:43.033Z,979.67
2023-02-01T11:11:43.166Z,979.64
2023-02-01T11:12:43.081Z,979.70
2023-02-01T11:13:43.138Z,979.62
2023-02-01T11:14:43.190Z,979.63
2023-02-01T11:15:43.240Z,979.57
2023-02-01T11:16:43.308Z,979.59
2023-02-01T11:17:43.340Z,979.52
2023-02-01T11:18:43.390Z,979.54
2023-02-01T11:19:43.453Z,979.49
2023-02-01T11:20:43.467Z,979.53
2023-02-01T11:21:43.501Z,979.47
2023-02-01T11:22:43.508Z,979.50
2023-02-01T11:23:43.551Z,979.43
2023-02-01T11:24:43.605Z,979.44
2023-02-01T11:25:43.652Z,979.37
2023-02-01T11:26:43.770Z,979.36
2023-02-01T11:27:54.527Z,979.37
2023-02-01T11:28:43.780Z,979.37
2023-02-01T11:29:43.815Z,979.35
2023-02-01T11:30:43.853Z,979.30
2023-02-01T11:31:43.949Z,979.33
2023-02-01T11:32:43.941Z,979.26
2023-02-01T11:33:44.020Z,979.23
2023-02-01T11:34:44.031Z,979.27
2023-02-01T11:35:44.062Z,979.17
2023-02-01T11:36:44.113Z,979.22
2023-02-01T11:37:44.190Z,979.22
2023-02-01T11:38:44.199Z,979.16
2023-02-01T11:39:44.247Z,979.20
2023-02-01T11:40:44.289Z,979.16
2023-02-01T11:41:44.387Z,979.18
2023-02-01T11:42:44.389Z,979.15
2023-02-01T11:43:44.455Z,979.13
2023-02-01T11:44:44.476Z,979.09
2023-02-01T11:45:44.579Z,979.19
2023-02-01T11:46:44.626Z,979.08
2023-02-01T11:47:44.607Z,979.12
2023-02-01T11:48:44.672Z,979.08
2023-02-01T11:49:44.710Z,979.10
2023-02-01T11:50:44.746Z,979.12
2023-02-01T11:51:44.826Z,979.06
2023-02-01T11:52:44.917Z,979.06
2023-02-01T11:53:44.896Z,978.96
2023-02-01T11:54:44.937Z,978.99
2023-02-01T11:55:45.037Z,979.01
2023-02-01T11:56:45.048Z,979.10
2023-02-01T11:57:45.142Z,979.03
2023-02-01T11:58:45.124Z,978.98
2023-02-01T11:59:51.692Z,979.02
2023-02-01T12:00:45.216Z,979.00
2023-02-01T12:01:45.274Z,979.00
2023-02-01T12:02:46.845Z,979.02
2023-02-01T12:03:45.352Z,979.05
2023-02-01T12:04:45.397Z,979.00
2023-02-01T12:05:45.443Z,979.05
2023-02-01T12:06:45.488Z,978.98
2023-02-01T12:07:45.568Z,978.96
2023-02-01T12:08:46.104Z,978.96
2023-02-01T12:09:45.635Z,978.96
2023-02-01T12:10:45.668Z,978.92
2023-02-01T12:11:45.717Z,978.89
2023-02-01T12:12:45.760Z,978.88
2023-02-01T12:13:45.866Z,978.92
2023-02-01T12:14:45.851Z,978.89
2023-02-01T12:15:45.911Z,978.86
2023-02-01T12:16:45.984Z,978.86
2023-02-01T12:17:45.997Z,978.90
2023-02-01T12:18:46.074Z,978.87
2023-02-01T12:19:46.090Z,978.91
2023-02-01T12:20:46.154Z,978.90
2023-02-01T12:21:46.217Z,978.89
2023-02-01T12:22:46.273Z,978.85
2023-02-01T12:23:46.367Z,978.87
2023-02-01T12:24:46.355Z,978.81
2023-02-01T12:25:46.455Z,978.86
2023-02-01T12:26:46.539Z,978.79
2023-02-01T12:27:46.501Z,978.82
2023-02-01T12:28:46.515Z,978.83
2023-02-01T12:29:46.596Z,978.78
2023-02-01T12:30:46.668Z,978.75
2023-02-01T12:31:48.043Z,978.72
2023-02-01T12:32:46.699Z,978.75
2023-02-01T12:33:46.714Z,978.70
2023-02-01T12:34:46.852Z,978.56
2023-02-01T12:35:46.879Z,978.63
2023-02-01T12:36:47.021Z,978.62
2023-02-01T12:37:47.021Z,978.59
2023-02-01T12:38:47.053Z,978.54